createdAt,value
2016-03-13T00:00:51.527Z,5.23
2016-03-13T00:01:51.514Z,5.23
2016-03-13T00:02:51.533Z,5.16
2016-03-13T00:03:51.535Z,5.16
2016-03-13T00:04:51.538Z,5.19
2016-03-13T00:05:51.540Z,5.2
2016-03-13T00:06:51.527Z,5.19
2016-03-13T00:07:51.546Z,5.2
2016-03-13T00:08:51.517Z,5.25
2016-03-13T00:09:51.521Z,5.23
2016-03-13T00:10:51.523Z,5.23
2016-03-13T00:11:51.510Z,5.23
2016-03-13T00:12:51.513Z,5.25
2016-03-13T00:13:51.516Z,5.25
2016-03-13T00:14:51.518Z,5.2
2016-03-13T00:15:51.520Z,5.22
2016-03-13T00:16:51.523Z,5.19
2016-03-13T00:17:51.510Z,5.23
2016-03-13T00:18:51.513Z,5.22
2016-03-13T00:19:51.516Z,5.2
2016-03-13T00:20:51.503Z,5.19
2016-03-13T00:21:51.506Z,5.28
2016-03-13T00:22:51.508Z,5.23
2016-03-13T00:23:51.511Z,5.28
2016-03-13T00:24:51.514Z,5.31
2016-03-13T00:25:51.531Z,5.26
2016-03-13T00:26:51.503Z,5.28
2016-03-13T00:27:51.506Z,5.29
2016-03-13T00:28:51.508Z,5.28
2016-03-13T00:29:51.496Z,5.28
2016-03-13T00:30:51.499Z,5.23
2016-03-13T00:31:51.502Z,5.33
2016-03-13T00:32:51.489Z,5.26
2016-03-13T00:33:51.491Z,5.33
2016-03-13T00:34:51.510Z,5.26
2016-03-13T00:35:51.496Z,5.29
2016-03-13T00:36:51.499Z,5.33
2016-03-13T00:37:51.501Z,5.28
2016-03-13T00:38:51.494Z,5.28
2016-03-13T00:39:51.496Z,5.29
2016-03-13T00:40:51.499Z,5.29
2016-03-13T00:41:51.487Z,5.26
2016-03-13T00:42:51.489Z,5.28
2016-03-13T00:43:51.492Z,5.31
2016-03-13T00:44:51.495Z,5.26
2016-03-13T00:45:51.497Z,5.25
2016-03-13T00:46:51.500Z,5.28
2016-03-13T00:47:51.486Z,5.28
2016-03-13T00:48:51.490Z,5.31
2016-03-13T00:49:51.476Z,5.28
2016-03-13T00:50:51.479Z,5.29
2016-03-13T00:51:51.482Z,5.29
2016-03-13T00:52:51.469Z,5.26
2016-03-13T00:53:51.472Z,5.25
2016-03-13T00:54:51.474Z,5.29
2016-03-13T00:55:51.477Z,5.23
2016-03-13T00:56:51.480Z,5.26
2016-03-13T00:57:51.482Z,5.28
2016-03-13T00:58:51.469Z,5.31
2016-03-13T00:59:51.488Z,5.31
2016-03-13T01:00:51.475Z,5.28
2016-03-13T01:01:51.462Z,5.23
2016-03-13T01:02:51.464Z,5.28
2016-03-13T01:03:51.467Z,5.28
2016-03-13T01:04:51.469Z,5.19
2016-03-13T01:05:51.472Z,5.25
2016-03-13T01:06:51.459Z,5.26
2016-03-13T01:07:51.478Z,5.22
2016-03-13T01:08:51.480Z,5.29
2016-03-13T01:09:51.468Z,5.2
2016-03-13T01:10:51.486Z,5.22
2016-03-13T01:11:51.474Z,5.23
2016-03-13T01:12:51.476Z,5.25
2016-03-13T01:13:51.462Z,5.22
2016-03-13T01:14:51.450Z,5.15
2016-03-13T01:15:51.453Z,5.28
2016-03-13T01:16:51.470Z,5.22
2016-03-13T01:17:51.442Z,5.28
2016-03-13T01:18:51.446Z,5.22
2016-03-13T01:19:51.448Z,5.28
2016-03-13T01:20:51.467Z,5.25
2016-03-13T01:21:51.453Z,5.23
2016-03-13T01:22:51.456Z,5.2
2016-03-13T01:23:51.458Z,5.2
2016-03-13T01:24:51.461Z,5.25
2016-03-13T01:25:51.479Z,5.25
2016-03-13T01:26:51.498Z,5.22
2016-03-13T01:27:51.453Z,5.2
2016-03-13T01:28:51.441Z,5.28
2016-03-13T01:29:51.475Z,5.2
2016-03-13T01:30:51.446Z,5.19
2016-03-13T01:31:51.449Z,5.28
2016-03-13T01:32:51.452Z,5.25
2016-03-13T01:33:51.454Z,5.26
2016-03-13T01:34:51.441Z,5.25
2016-03-13T01:35:51.443Z,5.25
2016-03-13T01:36:51.446Z,5.25
2016-03-13T01:37:51.434Z,5.23
2016-03-13T01:38:51.436Z,5.25
2016-03-13T01:39:51.439Z,5.19
2016-03-13T01:40:51.426Z,5.2
2016-03-13T01:41:51.460Z,5.28
2016-03-13T01:42:51.431Z,5.19
2016-03-13T01:43:51.434Z,5.16
2016-03-13T01:44:51.437Z,5.22
2016-03-13T01:45:51.424Z,5.2
2016-03-13T01:46:51.427Z,5.2
2016-03-13T01:47:51.429Z,5.22
2016-03-13T01:48:51.417Z,5.19
2016-03-13T01:49:51.420Z,5.16
2016-03-13T01:50:51.422Z,5.19
2016-03-13T01:51:51.425Z,5.1
2016-03-13T01:52:51.427Z,5.12
2016-03-13T01:53:51.430Z,5.13
2016-03-13T01:54:51.417Z,5.16
2016-03-13T01:55:51.419Z,5.15
2016-03-13T01:56:51.501Z,5.1
2016-03-13T01:57:51.425Z,5.08
2016-03-13T01:58:51.412Z,5.13
2016-03-13T01:59:51.414Z,5.1
2016-03-13T02:00:51.417Z,5.13
2016-03-13T02:01:51.420Z,5.08
2016-03-13T02:02:51.422Z,5.04
2016-03-13T02:03:51.410Z,5.02
2016-03-13T02:04:51.428Z,5.04
2016-03-13T02:05:51.416Z,5.08
2016-03-13T02:06:51.418Z,5.07
2016-03-13T02:07:51.405Z,5.05
2016-03-13T02:08:51.408Z,5.07
2016-03-13T02:09:51.410Z,5.1
2016-03-13T02:10:51.397Z,5.07
2016-03-13T02:11:51.432Z,5
2016-03-13T02:12:51.402Z,5.05
2016-03-13T02:13:51.405Z,5.04
2016-03-13T02:14:51.407Z,4.97
2016-03-13T02:15:51.411Z,4.95
2016-03-13T02:16:51.398Z,5.05
2016-03-13T02:17:51.432Z,4.97
2016-03-13T02:18:51.388Z,5.01
2016-03-13T02:19:51.406Z,5.01
2016-03-13T02:20:51.393Z,5.02
2016-03-13T02:21:51.396Z,4.98
2016-03-13T02:22:51.383Z,5.01
2016-03-13T02:23:51.386Z,4.98
2016-03-13T02:24:51.388Z,5
2016-03-13T02:25:51.391Z,4.98
2016-03-13T02:26:51.284Z,4.97
2016-03-13T02:27:51.397Z,5
2016-03-13T02:28:51.415Z,5
2016-03-13T02:29:51.386Z,5
2016-03-13T02:30:51.436Z,4.98
2016-03-13T02:31:51.375Z,5
2016-03-13T02:32:51.394Z,4.87
2016-03-13T02:33:51.380Z,4.95
2016-03-13T02:34:51.384Z,5
2016-03-13T02:35:51.372Z,4.92
2016-03-13T02:36:51.388Z,4.9
2016-03-13T02:37:51.377Z,4.86
2016-03-13T02:38:51.395Z,4.89
2016-03-13T02:39:51.382Z,4.89
2016-03-13T02:40:51.385Z,4.94
2016-03-13T02:41:51.387Z,4.89
2016-03-13T02:42:51.374Z,4.89
2016-03-13T02:43:51.377Z,4.89
2016-03-13T02:44:51.364Z,4.92
2016-03-13T02:45:51.382Z,4.89
2016-03-13T02:46:51.369Z,4.92
2016-03-13T02:47:51.387Z,4.9
2016-03-13T02:48:51.359Z,4.94
2016-03-13T02:49:51.362Z,4.9
2016-03-13T02:50:51.364Z,4.92
2016-03-13T02:51:51.445Z,4.9
2016-03-13T02:52:51.354Z,4.92
2016-03-13T02:53:51.372Z,4.89
2016-03-13T02:54:51.359Z,4.9
2016-03-13T02:55:51.362Z,4.92
2016-03-13T02:56:51.365Z,4.89
2016-03-13T02:57:51.353Z,4.92
2016-03-13T02:58:51.370Z,4.94
2016-03-13T02:59:51.342Z,4.94
2016-03-13T03:00:51.376Z,4.89
2016-03-13T03:01:51.364Z,4.84
2016-03-13T03:02:51.350Z,4.84
2016-03-13T03:03:51.353Z,4.86
2016-03-13T03:04:51.356Z,4.89
2016-03-13T03:05:51.342Z,4.79
2016-03-13T03:06:51.345Z,4.75
2016-03-13T03:07:51.363Z,4.74
2016-03-13T03:08:51.335Z,4.71
2016-03-13T03:09:51.353Z,4.79
2016-03-13T03:10:51.340Z,4.75
2016-03-13T03:11:51.343Z,4.82
2016-03-13T03:12:51.346Z,4.82
2016-03-13T03:13:51.332Z,4.84
2016-03-13T03:14:51.335Z,4.82
2016-03-13T03:15:51.338Z,4.83
2016-03-13T03:16:51.324Z,4.78
2016-03-13T03:17:51.343Z,4.78
2016-03-13T03:18:51.329Z,4.79
2016-03-13T03:19:51.348Z,4.84
2016-03-13T03:20:51.335Z,4.84
2016-03-13T03:21:51.323Z,4.78
2016-03-13T03:22:51.340Z,4.86
2016-03-13T03:23:51.328Z,4.76
2016-03-13T03:24:51.331Z,4.79
2016-03-13T03:25:51.317Z,4.74
2016-03-13T03:26:51.320Z,4.74
2016-03-13T03:27:51.323Z,4.84
2016-03-13T03:28:51.325Z,4.84
2016-03-13T03:29:51.329Z,4.79
2016-03-13T03:30:51.316Z,4.75
2016-03-13T03:31:51.303Z,4.82
2016-03-13T03:32:51.322Z,4.75
2016-03-13T03:33:51.324Z,4.76
2016-03-13T03:34:51.311Z,4.67
2016-03-13T03:35:51.314Z,4.74
2016-03-13T03:36:51.300Z,4.7
2016-03-13T03:37:51.319Z,4.74
2016-03-13T03:38:51.306Z,4.74
2016-03-13T03:39:51.309Z,4.71
2016-03-13T03:40:51.296Z,4.74
2016-03-13T03:41:51.314Z,4.64
2016-03-13T03:42:51.301Z,4.71
2016-03-13T03:43:51.304Z,4.74
2016-03-13T03:44:51.291Z,4.58
2016-03-13T03:45:51.293Z,4.67
2016-03-13T03:46:51.296Z,4.66
2016-03-13T03:47:51.143Z,4.66
2016-03-13T03:48:51.285Z,4.71
2016-03-13T03:49:51.288Z,4.63
2016-03-13T03:50:51.291Z,4.6
2016-03-13T03:51:51.278Z,4.6
2016-03-13T03:52:51.296Z,4.53
2016-03-13T03:53:51.283Z,4.57
2016-03-13T03:54:51.286Z,4.56
2016-03-13T03:55:51.289Z,4.56
2016-03-13T03:56:51.292Z,4.57
2016-03-13T03:57:51.294Z,4.58
2016-03-13T03:58:51.281Z,4.52
2016-03-13T03:59:51.284Z,4.57
2016-03-13T04:00:51.286Z,4.52
2016-03-13T04:01:51.274Z,4.49
2016-03-13T04:02:51.277Z,4.49
2016-03-13T04:03:51.280Z,4.49
2016-03-13T04:04:51.298Z,4.5
2016-03-13T04:05:51.285Z,4.53
2016-03-13T04:06:51.288Z,4.46
2016-03-13T04:07:51.291Z,4.53
2016-03-13T04:08:51.277Z,4.48
2016-03-13T04:09:51.264Z,4.5
2016-03-13T04:10:51.267Z,4.5
2016-03-13T04:11:51.269Z,4.52
2016-03-13T04:12:51.272Z,4.48
2016-03-13T04:13:51.260Z,4.53
2016-03-13T04:14:51.262Z,4.53
2016-03-13T04:15:51.296Z,4.4
2016-03-13T04:16:51.268Z,4.5
2016-03-13T04:17:51.270Z,4.39
2016-03-13T04:18:51.257Z,4.36
2016-03-13T04:19:51.276Z,4.45
2016-03-13T04:20:51.262Z,4.42
2016-03-13T04:21:51.265Z,4.48
2016-03-13T04:22:51.268Z,4.42
2016-03-13T04:23:51.270Z,4.4
2016-03-13T04:24:51.257Z,4.38
2016-03-13T04:25:51.260Z,4.39
2016-03-13T04:26:51.247Z,4.39
2016-03-13T04:27:51.266Z,4.34
2016-03-13T04:28:51.253Z,4.38
2016-03-13T04:29:51.256Z,4.36
2016-03-13T04:30:51.259Z,4.4
2016-03-13T04:31:51.261Z,4.25
2016-03-13T04:32:51.264Z,4.28
2016-03-13T04:33:51.251Z,4.31
2016-03-13T04:34:51.270Z,4.24
2016-03-13T04:35:51.256Z,4.28
2016-03-13T04:36:51.228Z,4.25
2016-03-13T04:37:51.231Z,4.21
2016-03-13T04:38:51.233Z,4.18
2016-03-13T04:39:51.236Z,4.22
2016-03-13T04:40:51.222Z,4.14
2016-03-13T04:41:51.225Z,4.14
2016-03-13T04:42:51.228Z,4.12
2016-03-13T04:43:51.230Z,4.1
2016-03-13T04:44:51.233Z,4.06
2016-03-13T04:45:51.236Z,4.07
2016-03-13T04:46:51.223Z,4.02
2016-03-13T04:47:51.226Z,4.02
2016-03-13T04:48:51.213Z,3.92
2016-03-13T04:49:51.231Z,4
2016-03-13T04:50:51.218Z,4.02
2016-03-13T04:51:51.204Z,3.95
2016-03-13T04:52:51.223Z,4.04
2016-03-13T04:53:51.210Z,4.03
2016-03-13T04:54:51.213Z,3.99
2016-03-13T04:55:51.215Z,3.96
2016-03-13T04:56:51.203Z,4.02
2016-03-13T04:57:51.284Z,3.96
2016-03-13T04:58:51.208Z,4
2016-03-13T04:59:51.211Z,4
2016-03-13T05:00:51.214Z,4.06
2016-03-13T05:01:51.217Z,4
2016-03-13T05:02:51.204Z,3.99
2016-03-13T05:03:51.206Z,4.06
2016-03-13T05:04:51.194Z,4.03
2016-03-13T05:05:51.197Z,3.95
2016-03-13T05:06:51.199Z,3.89
2016-03-13T05:07:51.186Z,4
2016-03-13T05:08:51.189Z,4.03
2016-03-13T05:09:51.191Z,3.99
2016-03-13T05:10:51.194Z,4.03
2016-03-13T05:11:51.197Z,3.99
2016-03-13T05:12:51.261Z,4.07
2016-03-13T05:13:51.202Z,3.95
2016-03-13T05:14:51.205Z,3.99
2016-03-13T05:15:51.191Z,4
2016-03-13T05:16:51.194Z,3.94
2016-03-13T05:17:51.197Z,4.03
2016-03-13T05:18:51.184Z,4.02
2016-03-13T05:19:51.187Z,4.04
2016-03-13T05:20:51.190Z,3.94
2016-03-13T05:21:51.192Z,4.04
2016-03-13T05:22:51.179Z,3.99
2016-03-13T05:23:51.182Z,3.99
2016-03-13T05:24:51.184Z,4
2016-03-13T05:25:51.171Z,3.94
2016-03-13T05:26:51.173Z,3.94
2016-03-13T05:27:51.176Z,3.92
2016-03-13T05:28:51.179Z,3.92
2016-03-13T05:29:51.181Z,3.89
2016-03-13T05:30:51.169Z,3.88
2016-03-13T05:31:51.172Z,3.91
2016-03-13T05:32:51.175Z,3.95
2016-03-13T05:33:51.177Z,3.88
2016-03-13T05:34:51.164Z,3.82
2016-03-13T05:35:51.152Z,3.82
2016-03-13T05:36:51.155Z,3.88
2016-03-13T05:37:51.158Z,3.89
2016-03-13T05:38:51.160Z,3.82
2016-03-13T05:39:51.163Z,3.89
2016-03-13T05:40:51.166Z,3.82
2016-03-13T05:41:51.152Z,3.78
2016-03-13T05:42:51.155Z,3.86
2016-03-13T05:43:51.142Z,3.76
2016-03-13T05:44:51.144Z,3.89
2016-03-13T05:45:51.179Z,3.78
2016-03-13T05:46:51.156Z,3.85
2016-03-13T05:47:50.981Z,3.76
2016-03-13T05:48:51.141Z,3.78
2016-03-13T05:49:51.364Z,3.86
2016-03-13T05:50:51.133Z,3.76
2016-03-13T05:51:51.120Z,3.77
2016-03-13T05:52:51.169Z,3.82
2016-03-13T05:53:51.125Z,3.86
2016-03-13T05:54:51.113Z,3.86
2016-03-13T05:55:51.116Z,3.77
2016-03-13T05:56:51.118Z,3.81
2016-03-13T05:57:51.090Z,3.82
2016-03-13T05:58:51.113Z,3.82
2016-03-13T05:59:51.115Z,3.86
2016-03-13T06:00:51.118Z,3.77
2016-03-13T06:01:51.105Z,3.82
2016-03-13T06:02:51.107Z,3.77
2016-03-13T06:03:51.110Z,3.73
2016-03-13T06:04:51.113Z,3.82
2016-03-13T06:05:51.100Z,3.82
2016-03-13T06:06:51.100Z,3.84
2016-03-13T06:07:51.103Z,3.81
2016-03-13T06:08:51.106Z,3.78
2016-03-13T06:09:51.093Z,3.89
2016-03-13T06:10:51.095Z,3.78
2016-03-13T06:11:51.098Z,3.89
2016-03-13T06:12:50.992Z,3.85
2016-03-13T06:13:51.104Z,3.88
2016-03-13T06:14:51.106Z,3.84
2016-03-13T06:15:51.094Z,3.82
2016-03-13T06:16:51.097Z,3.76
2016-03-13T06:17:51.083Z,3.76
2016-03-13T06:18:51.086Z,3.76
2016-03-13T06:19:51.089Z,3.88
2016-03-13T06:20:51.185Z,3.82
2016-03-13T06:21:51.078Z,3.89
2016-03-13T06:22:51.080Z,3.85
2016-03-13T06:23:51.068Z,3.92
2016-03-13T06:24:51.071Z,3.88
2016-03-13T06:25:51.073Z,3.95
2016-03-13T06:26:51.076Z,3.96
2016-03-13T06:27:51.079Z,3.96
2016-03-13T06:28:51.081Z,3.99
2016-03-13T06:29:51.068Z,3.99
2016-03-13T06:30:51.071Z,3.96
2016-03-13T06:31:51.089Z,4
2016-03-13T06:32:51.076Z,3.95
2016-03-13T06:33:51.079Z,4
2016-03-13T06:34:51.081Z,4.04
2016-03-13T06:35:51.068Z,3.95
2016-03-13T06:36:51.056Z,3.96
2016-03-13T06:37:51.073Z,3.91
2016-03-13T06:38:51.076Z,3.88
2016-03-13T06:39:51.064Z,3.86
2016-03-13T06:40:51.050Z,3.91
2016-03-13T06:41:51.054Z,3.91
2016-03-13T06:42:51.072Z,3.85
2016-03-13T06:43:51.075Z,3.85
2016-03-13T06:44:51.047Z,3.86
2016-03-13T06:45:51.049Z,3.91
2016-03-13T06:46:51.036Z,3.89
2016-03-13T06:47:51.039Z,3.95
2016-03-13T06:48:51.041Z,3.96
2016-03-13T06:49:51.028Z,3.99
2016-03-13T06:50:51.062Z,3.95
2016-03-13T06:51:51.049Z,3.95
2016-03-13T06:52:51.052Z,4
2016-03-13T06:53:51.039Z,4.02
2016-03-13T06:54:51.041Z,4.04
2016-03-13T06:55:51.029Z,4.03
2016-03-13T06:56:51.047Z,4.03
2016-03-13T06:57:51.049Z,4.04
2016-03-13T06:58:51.052Z,4.06
2016-03-13T06:59:51.024Z,4.06
2016-03-13T07:00:51.043Z,4.06
2016-03-13T07:01:51.030Z,4.12
2016-03-13T07:02:51.016Z,4.1
2016-03-13T07:03:51.051Z,4.13
2016-03-13T07:04:51.022Z,4.1
2016-03-13T07:05:51.024Z,4.21
2016-03-13T07:06:51.043Z,4.18
2016-03-13T07:07:51.015Z,4.21
2016-03-13T07:08:51.032Z,4.22
2016-03-13T07:09:51.020Z,4.22
2016-03-13T07:10:51.022Z,4.24
2016-03-13T07:11:51.009Z,4.27
2016-03-13T07:12:51.028Z,4.24
2016-03-13T07:13:51.000Z,4.42
2016-03-13T07:14:51.017Z,4.39
2016-03-13T07:15:51.005Z,4.52
2016-03-13T07:16:51.008Z,4.39
2016-03-13T07:17:51.010Z,4.49
2016-03-13T07:18:50.997Z,4.46
2016-03-13T07:19:51.015Z,4.49
2016-03-13T07:20:51.002Z,4.56
2016-03-13T07:21:51.052Z,4.58
2016-03-13T07:22:50.991Z,4.57
2016-03-13T07:23:51.010Z,4.63
2016-03-13T07:24:50.997Z,4.57
2016-03-13T07:25:50.999Z,4.58
2016-03-13T07:26:51.035Z,4.56
2016-03-13T07:27:51.005Z,4.48
2016-03-13T07:28:50.993Z,4.58
2016-03-13T07:29:51.011Z,4.56
2016-03-13T07:30:50.982Z,4.6
2016-03-13T07:31:50.985Z,4.64
2016-03-13T07:32:50.988Z,4.64
2016-03-13T07:33:50.991Z,4.64
2016-03-13T07:34:51.009Z,4.7
2016-03-13T07:35:50.980Z,4.68
2016-03-13T07:36:50.998Z,4.78
2016-03-13T07:37:50.985Z,4.84
2016-03-13T07:38:50.988Z,4.84
2016-03-13T07:39:50.990Z,4.9
2016-03-13T07:40:50.978Z,4.97
2016-03-13T07:41:50.981Z,4.89
2016-03-13T07:42:50.983Z,5.02
2016-03-13T07:43:50.970Z,4.95
2016-03-13T07:44:50.988Z,4.98
2016-03-13T07:45:50.975Z,5.1
2016-03-13T07:46:50.978Z,5.04
2016-03-13T07:47:50.980Z,5.1
2016-03-13T07:48:50.983Z,5.13
2016-03-13T07:49:50.971Z,5.04
2016-03-13T07:50:50.974Z,5.04
2016-03-13T07:51:50.992Z,5.04
2016-03-13T07:52:50.964Z,5.02
2016-03-13T07:53:50.982Z,5.04
2016-03-13T07:54:50.969Z,5.01
2016-03-13T07:55:50.972Z,4.97
2016-03-13T07:56:50.958Z,4.94
2016-03-13T07:57:50.961Z,4.97
2016-03-13T07:58:50.963Z,4.94
2016-03-13T07:59:50.982Z,4.98
2016-03-13T08:00:50.969Z,5.04
2016-03-13T08:01:50.971Z,4.98
2016-03-13T08:02:50.959Z,5.01
2016-03-13T08:03:50.977Z,4.97
2016-03-13T08:04:50.965Z,4.9
2016-03-13T08:05:50.968Z,4.84
2016-03-13T08:06:50.954Z,4.86
2016-03-13T08:07:50.973Z,4.84
2016-03-13T08:08:50.990Z,4.87
2016-03-13T08:09:50.978Z,4.95
2016-03-13T08:10:50.981Z,4.95
2016-03-13T08:11:50.951Z,4.94
2016-03-13T08:12:50.970Z,5.04
2016-03-13T08:13:50.957Z,5.01
2016-03-13T08:14:50.960Z,5.13
2016-03-13T08:15:50.947Z,5.12
2016-03-13T08:16:50.965Z,5.2
2016-03-13T08:17:50.953Z,5.25
2016-03-13T08:18:50.970Z,5.26
2016-03-13T08:19:50.958Z,5.25
2016-03-13T08:20:50.961Z,5.22
2016-03-13T08:21:50.947Z,5.29
2016-03-13T08:22:50.981Z,5.28
2016-03-13T08:23:50.952Z,5.26
2016-03-13T08:24:50.955Z,5.29
2016-03-13T08:25:50.958Z,5.31
2016-03-13T08:26:50.960Z,5.29
2016-03-13T08:27:50.964Z,5.41
2016-03-13T08:28:51.122Z,5.47
2016-03-13T08:29:50.954Z,5.36
2016-03-13T08:30:50.957Z,5.47
2016-03-13T08:31:50.943Z,5.43
2016-03-13T08:32:50.946Z,5.38
2016-03-13T08:33:50.964Z,5.37
2016-03-13T08:34:50.935Z,5.36
2016-03-13T08:35:50.953Z,5.37
2016-03-13T08:36:50.927Z,5.47
2016-03-13T08:37:50.931Z,5.51
2016-03-13T08:38:50.890Z,5.51
2016-03-13T08:39:50.893Z,5.62
2016-03-13T08:40:50.882Z,5.61
2016-03-13T08:41:50.865Z,5.76
2016-03-13T08:42:50.863Z,5.74
2016-03-13T08:43:50.860Z,5.76
2016-03-13T08:44:50.847Z,5.79
2016-03-13T08:45:50.861Z,5.76
2016-03-13T08:46:50.846Z,5.84
2016-03-13T08:47:50.847Z,5.88
2016-03-13T08:48:50.847Z,5.76
2016-03-13T08:49:50.895Z,5.77
2016-03-13T08:50:50.833Z,5.73
2016-03-13T08:51:50.835Z,5.74
2016-03-13T08:52:50.836Z,5.73
2016-03-13T08:53:50.839Z,5.84
2016-03-13T08:54:50.825Z,5.9
2016-03-13T08:55:50.842Z,5.97
2016-03-13T08:56:50.844Z,5.92
2016-03-13T08:57:50.815Z,6.06
2016-03-13T08:58:50.834Z,6.19
2016-03-13T08:59:50.837Z,6.36
2016-03-13T09:00:50.823Z,6.41
2016-03-13T09:01:50.825Z,6.57
2016-03-13T09:02:50.828Z,6.59
2016-03-13T09:03:50.831Z,6.53
2016-03-13T09:04:50.834Z,6.5
2016-03-13T09:05:50.837Z,6.5
2016-03-13T09:06:50.688Z,6.46
2016-03-13T09:07:50.833Z,6.53
2016-03-13T09:08:50.835Z,6.65
2016-03-13T09:09:50.838Z,6.9
2016-03-13T09:10:50.841Z,7.1
2016-03-13T09:11:50.812Z,7.33
2016-03-13T09:12:50.815Z,7.56
2016-03-13T09:13:50.818Z,7.78
2016-03-13T09:14:50.836Z,7.87
2016-03-13T09:15:50.823Z,7.7
2016-03-13T09:16:50.826Z,7.64
2016-03-13T09:17:50.813Z,7.62
2016-03-13T09:18:50.831Z,7.77
2016-03-13T09:19:50.818Z,7.87
2016-03-13T09:20:50.836Z,8.01
2016-03-13T09:21:50.824Z,8.06
2016-03-13T09:22:50.826Z,8.11
2016-03-13T09:23:50.829Z,8.03
2016-03-13T09:24:50.816Z,8.05
2016-03-13T09:25:50.819Z,8.02
2016-03-13T09:26:50.821Z,8.09
2016-03-13T09:27:50.808Z,8.18
2016-03-13T09:28:50.811Z,8.24
2016-03-13T09:29:50.830Z,8.32
2016-03-13T09:30:50.817Z,8.31
2016-03-13T09:31:50.835Z,8.36
2016-03-13T09:32:50.838Z,8.31
2016-03-13T09:33:50.825Z,8.53
2016-03-13T09:34:50.843Z,8.49
2016-03-13T09:35:50.830Z,8.31
2016-03-13T09:36:50.849Z,8.17
2016-03-13T09:37:50.835Z,8.08
2016-03-13T09:38:50.838Z,7.99
2016-03-13T09:39:50.826Z,7.81
2016-03-13T09:40:50.844Z,7.72
2016-03-13T09:41:50.831Z,7.72
2016-03-13T09:42:50.849Z,7.7
2016-03-13T09:43:50.837Z,7.53
2016-03-13T09:44:50.839Z,7.48
2016-03-13T09:45:50.826Z,7.44
2016-03-13T09:46:50.829Z,7.43
2016-03-13T09:47:50.816Z,7.4
2016-03-13T09:48:50.850Z,7.26
2016-03-13T09:49:50.087Z,7.19
2016-03-13T09:50:50.839Z,7.04
2016-03-13T09:51:50.858Z,6.97
2016-03-13T09:52:50.828Z,7.14
2016-03-13T09:53:50.864Z,7.14
2016-03-13T09:54:50.834Z,7.11
2016-03-13T09:55:50.869Z,7.1
2016-03-13T09:56:50.872Z,7.15
2016-03-13T09:57:50.889Z,7.18
2016-03-13T09:58:50.892Z,7.07
2016-03-13T09:59:50.848Z,7.1
2016-03-13T10:00:50.850Z,7.13
2016-03-13T10:01:50.853Z,7.08
2016-03-13T10:02:50.840Z,7.15
2016-03-13T10:03:50.858Z,7.18
2016-03-13T10:04:50.861Z,7.13
2016-03-13T10:05:50.849Z,7.11
2016-03-13T10:06:50.852Z,7.14
2016-03-13T10:07:50.854Z,7.13
2016-03-13T10:08:50.857Z,7.25
2016-03-13T10:09:50.859Z,7.36
2016-03-13T10:10:50.846Z,7.5
2016-03-13T10:11:50.880Z,7.39
2016-03-13T10:12:50.852Z,7.51
2016-03-13T10:13:50.745Z,7.46
2016-03-13T10:14:50.857Z,7.44
2016-03-13T10:15:50.860Z,7.5
2016-03-13T10:16:50.862Z,7.46
2016-03-13T10:17:50.865Z,7.46
2016-03-13T10:18:50.867Z,7.47
2016-03-13T10:19:50.854Z,7.58
2016-03-13T10:20:50.873Z,7.59
2016-03-13T10:21:50.859Z,7.59
2016-03-13T10:22:50.894Z,7.55
2016-03-13T10:23:50.865Z,7.48
2016-03-13T10:24:50.884Z,7.39
2016-03-13T10:25:50.871Z,7.31
2016-03-13T10:26:50.889Z,7.26
2016-03-13T10:27:50.876Z,7.32
2016-03-13T10:28:50.925Z,7.22
2016-03-13T10:29:50.881Z,7.26
2016-03-13T10:30:50.884Z,7.21
2016-03-13T10:31:50.871Z,7.14
2016-03-13T10:32:50.889Z,7.14
2016-03-13T10:33:50.877Z,7.26
2016-03-13T10:34:50.895Z,7.21
2016-03-13T10:35:50.882Z,7.26
2016-03-13T10:36:50.885Z,7.23
2016-03-13T10:37:50.887Z,7.28
2016-03-13T10:38:50.890Z,7.4
2016-03-13T10:39:50.893Z,7.46
2016-03-13T10:40:50.896Z,7.44
2016-03-13T10:41:50.899Z,7.58
2016-03-13T10:42:50.901Z,7.59
2016-03-13T10:43:50.919Z,7.53
2016-03-13T10:44:50.907Z,7.56
2016-03-13T10:45:50.924Z,7.69
2016-03-13T10:46:50.912Z,7.77
2016-03-13T10:47:50.899Z,7.77
2016-03-13T10:48:50.901Z,7.74
2016-03-13T10:49:50.889Z,7.7
2016-03-13T10:50:50.906Z,7.56
2016-03-13T10:51:50.894Z,7.61
2016-03-13T10:52:50.897Z,7.62
2016-03-13T10:53:50.900Z,7.72
2016-03-13T10:54:50.903Z,7.78
2016-03-13T10:55:50.920Z,7.72
2016-03-13T10:56:50.908Z,7.67
2016-03-13T10:57:50.754Z,7.69
2016-03-13T10:58:50.773Z,7.81
2016-03-13T10:59:50.900Z,7.77
2016-03-13T11:00:50.902Z,7.83
2016-03-13T11:01:50.921Z,8.05
2016-03-13T11:02:50.924Z,8.11
2016-03-13T11:03:50.911Z,8.16
2016-03-13T11:04:50.897Z,8.02
2016-03-13T11:05:50.916Z,8.11
2016-03-13T11:06:50.919Z,8.06
2016-03-13T11:07:50.905Z,8.16
2016-03-13T11:08:50.783Z,8.27
2016-03-13T11:09:50.911Z,8.32
2016-03-13T11:10:50.929Z,8.42
2016-03-13T11:11:50.916Z,8.54
2016-03-13T11:12:50.919Z,8.57
2016-03-13T11:13:50.953Z,8.54
2016-03-13T11:14:50.940Z,8.39
2016-03-13T11:15:50.926Z,8.39
2016-03-13T11:16:50.929Z,8.27
2016-03-13T11:17:50.917Z,8.27
2016-03-13T11:18:50.920Z,8.28
2016-03-13T11:19:50.923Z,8.23
2016-03-13T11:20:50.941Z,8.09
2016-03-13T11:21:50.912Z,8.05
2016-03-13T11:22:50.915Z,8.02
2016-03-13T11:23:50.933Z,8.05
2016-03-13T11:24:50.936Z,8.05
2016-03-13T11:25:50.939Z,8.06
2016-03-13T11:26:50.941Z,8.01
2016-03-13T11:27:50.944Z,8.13
2016-03-13T11:28:50.947Z,8.06
2016-03-13T11:29:50.933Z,8.09
2016-03-13T11:30:50.936Z,8.14
2016-03-13T11:31:50.955Z,8.01
2016-03-13T11:32:50.942Z,8.11
2016-03-13T11:33:50.929Z,8.05
2016-03-13T11:34:50.947Z,8.03
2016-03-13T11:35:50.934Z,7.91
2016-03-13T11:36:50.969Z,7.99
2016-03-13T11:37:50.940Z,7.88
2016-03-13T11:38:50.974Z,7.87
2016-03-13T11:39:50.961Z,7.9
2016-03-13T11:40:50.964Z,7.99
2016-03-13T11:41:50.966Z,7.98
2016-03-13T11:42:50.985Z,7.9
2016-03-13T11:43:50.956Z,7.9
2016-03-13T11:44:50.958Z,7.9
2016-03-13T11:45:50.977Z,7.84
2016-03-13T11:46:50.963Z,7.88
2016-03-13T11:47:50.982Z,7.84
2016-03-13T11:48:50.969Z,7.88
2016-03-13T11:49:50.987Z,7.88
2016-03-13T11:50:50.959Z,7.81
2016-03-13T11:51:50.977Z,7.88
2016-03-13T11:52:50.965Z,7.83
2016-03-13T11:53:50.967Z,8.03
2016-03-13T11:54:50.970Z,8.08
2016-03-13T11:55:50.832Z,7.95
2016-03-13T11:56:50.975Z,7.96
2016-03-13T11:57:50.993Z,7.95
2016-03-13T11:58:50.981Z,7.96
2016-03-13T11:59:50.983Z,7.84
2016-03-13T12:00:50.987Z,7.88
2016-03-13T12:01:50.974Z,7.88
2016-03-13T12:02:50.976Z,7.88
2016-03-13T12:03:51.026Z,7.95
2016-03-13T12:04:50.998Z,8.05
2016-03-13T12:05:51.000Z,8.18
2016-03-13T12:06:51.003Z,8.36
2016-03-13T12:07:51.145Z,8.42
2016-03-13T12:08:51.008Z,8.42
2016-03-13T12:09:50.994Z,8.53
2016-03-13T12:10:50.997Z,8.59
2016-03-13T12:11:51.000Z,8.57
2016-03-13T12:12:51.019Z,8.57
2016-03-13T12:13:50.991Z,8.56
2016-03-13T12:14:50.993Z,8.59
2016-03-13T12:15:51.011Z,8.68
2016-03-13T12:16:51.013Z,8.63
2016-03-13T12:17:51.001Z,8.57
2016-03-13T12:18:51.019Z,8.56
2016-03-13T12:19:51.022Z,8.44
2016-03-13T12:20:51.024Z,8.54
2016-03-13T12:21:51.012Z,8.63
2016-03-13T12:22:51.046Z,8.61
2016-03-13T12:23:51.018Z,8.69
2016-03-13T12:24:51.020Z,8.66
2016-03-13T12:25:51.038Z,8.64
2016-03-13T12:26:51.009Z,8.59
2016-03-13T12:27:51.043Z,8.66
2016-03-13T12:28:51.015Z,8.69
2016-03-13T12:29:51.033Z,8.66
2016-03-13T12:30:51.021Z,8.66
2016-03-13T12:31:51.023Z,8.75
2016-03-13T12:32:51.026Z,8.92
2016-03-13T12:33:51.029Z,9
2016-03-13T12:34:51.031Z,8.97
2016-03-13T12:35:51.034Z,9
2016-03-13T12:36:51.052Z,9
2016-03-13T12:37:51.039Z,9.13
2016-03-13T12:38:51.042Z,9.18
2016-03-13T12:39:51.044Z,9.24
2016-03-13T12:40:51.031Z,9.31
2016-03-13T12:41:51.034Z,9.26
2016-03-13T12:42:51.037Z,9.26
2016-03-13T12:43:51.039Z,9.09
2016-03-13T12:44:51.042Z,9.02
2016-03-13T12:45:51.061Z,8.9
2016-03-13T12:46:51.047Z,8.86
2016-03-13T12:47:51.050Z,8.86
2016-03-13T12:48:51.052Z,8.92
2016-03-13T12:49:51.072Z,8.96
2016-03-13T12:50:51.058Z,9.03
2016-03-13T12:51:51.076Z,9.02
2016-03-13T12:52:51.064Z,9
2016-03-13T12:53:51.066Z,9
2016-03-13T12:54:51.085Z,9.15
2016-03-13T12:55:51.072Z,9.05
2016-03-13T12:56:51.059Z,9.03
2016-03-13T12:57:51.109Z,8.95
2016-03-13T12:58:51.095Z,9
2016-03-13T12:59:51.098Z,8.9
2016-03-13T13:00:51.070Z,8.9
2016-03-13T13:01:51.073Z,8.96
2016-03-13T13:02:51.060Z,8.93
2016-03-13T13:03:51.093Z,8.89
2016-03-13T13:04:51.081Z,8.9
2016-03-13T13:05:51.083Z,8.86
2016-03-13T13:06:51.383Z,8.78
2016-03-13T13:07:51.089Z,8.68
2016-03-13T13:08:51.091Z,8.68
2016-03-13T13:09:51.098Z,8.68
2016-03-13T13:10:51.085Z,8.69
2016-03-13T13:11:51.104Z,8.74
2016-03-13T13:12:51.106Z,8.72
2016-03-13T13:13:51.093Z,8.63
2016-03-13T13:14:51.096Z,8.59
2016-03-13T13:15:51.098Z,8.46
2016-03-13T13:16:51.101Z,8.59
2016-03-13T13:17:51.103Z,8.66
2016-03-13T13:18:51.107Z,8.72
2016-03-13T13:19:51.125Z,8.82
2016-03-13T13:20:51.111Z,8.77
2016-03-13T13:21:51.114Z,8.81
2016-03-13T13:22:51.117Z,8.84